createdAt,value
2023-02-13T00:01:32.548Z,99182.00
2023-02-13T00:04:01.201Z,99174.88
2023-02-13T00:06:29.300Z,99181.19
2023-02-13T00:08:57.517Z,99172.25
2023-02-13T00:11:25.734Z,99174.00
2023-02-13T00:13:55.360Z,99181.19
2023-02-13T00:16:23.585Z,99178.53
2023-02-13T00:18:51.786Z,99185.69
2023-02-13T00:21:20.149Z,99186.59
2023-02-13T00:23:48.536Z,99183.00
2023-02-13T00:26:17.543Z,99189.28
2023-02-13T00:28:46.231Z,99191.97
2023-02-13T00:31:17.375Z,99184.81
2023-02-13T00:33:45.642Z,99179.50
2023-02-13T00:36:14.634Z,99182.19
2023-02-13T00:38:43.071Z,99174.13
2023-02-13T00:41:11.296Z,99183.09
2023-02-13T00:43:39.491Z,99181.28
2023-02-13T00:46:07.939Z,99183.09
2023-02-13T00:48:37.717Z,99178.59
2023-02-13T00:51:06.596Z,99183.09
2023-02-13T00:53:35.195Z,99174.22
2023-02-13T00:56:03.604Z,99184.03
2023-02-13T00:58:31.843Z,99186.78
2023-02-13T01:01:00.195Z,99182.34
2023-02-13T01:03:28.680Z,99179.66
2023-02-13T01:05:58.685Z,99173.41
2023-02-13T01:08:28.492Z,99178.78
2023-02-13T01:10:57.126Z,99183.31
2023-02-13T01:13:25.499Z,99179.72
2023-02-13T01:15:55.244Z,99181.50
2023-02-13T01:18:23.551Z,99177.94
2023-02-13T01:20:59.581Z,99175.31
2023-02-13T01:23:28.521Z,99175.31
2023-02-13T01:25:56.700Z,99170.88
2023-02-13T01:28:26.082Z,99173.59
2023-02-13T01:30:55.291Z,99172.78
2023-02-13T01:33:23.823Z,99178.09
2023-02-13T01:35:52.108Z,99172.72
2023-02-13T01:38:21.997Z,99170.94
2023-02-13T01:40:51.294Z,99164.66
2023-02-13T01:43:19.492Z,99164.66
2023-02-13T01:45:48.759Z,99160.19
2023-02-13T01:48:20.361Z,99165.56
2023-02-13T01:50:50.069Z,99173.59
2023-02-13T01:53:21.668Z,99176.28
2023-02-13T01:55:54.586Z,99179.09
2023-02-13T01:58:24.120Z,99175.53
2023-02-13T02:00:52.348Z,99170.16
2023-02-13T02:03:22.742Z,99160.34
2023-02-13T02:05:51.714Z,99171.91
2023-02-13T02:08:21.212Z,99165.69
2023-02-13T02:10:55.115Z,99163.84
2023-02-13T02:13:24.681Z,99176.41
2023-02-13T02:15:53.053Z,99168.38
2023-02-13T02:18:22.853Z,99173.75
2023-02-13T02:21:25.626Z,99174.63
2023-02-13T02:24:20.982Z,99176.44
2023-02-13T02:27:26.325Z,99171.13
2023-02-13T02:30:48.125Z,99173.75
2023-02-13T02:33:24.820Z,99173.81
2023-02-13T02:35:58.609Z,99169.31
2023-02-13T02:38:40.298Z,99165.75
2023-02-13T02:41:10.272Z,99169.38
2023-02-13T02:43:46.673Z,99168.56
2023-02-13T02:46:18.115Z,99160.50
2023-02-13T02:49:11.580Z,99162.25
2023-02-13T02:51:45.020Z,99172.06
2023-02-13T02:54:34.047Z,99171.19
2023-02-13T02:57:10.633Z,99174.75
2023-02-13T02:59:56.111Z,99176.53
2023-02-13T03:02:41.585Z,99172.97
2023-02-13T03:05:33.813Z,99175.66
2023-02-13T03:08:03.274Z,99171.25
2023-02-13T03:10:51.078Z,99173.03
2023-02-13T03:13:30.200Z,99173.91
2023-02-13T03:16:16.785Z,99168.56
2023-02-13T03:19:03.561Z,99165.00
2023-02-13T03:21:54.141Z,99162.38
2023-02-13T03:24:26.129Z,99166.84
2023-02-13T03:26:56.524Z,99165.97
2023-02-13T03:29:48.973Z,99163.28
2023-02-13T03:32:22.266Z,99157.03
2023-02-13T03:35:11.201Z,99156.16
2023-02-13T03:37:56.229Z,99153.50
2023-02-13T03:40:28.320Z,99155.34
2023-02-13T03:42:58.151Z,99150.00
2023-02-13T03:45:49.021Z,99149.16
2023-02-13T03:48:32.649Z,99144.75
2023-02-13T03:51:00.869Z,99144.81
2023-02-13T03:53:30.872Z,99142.97
2023-02-13T03:56:16.340Z,99142.13
2023-02-13T03:59:03.385Z,99138.56
2023-02-13T04:01:32.799Z,99142.13
2023-02-13T04:04:04.876Z,99134.06
2023-02-13T04:06:34.207Z,99137.66
2023-02-13T04:09:03.852Z,99135.00
2023-02-13T04:11:33.889Z,99135.94
2023-02-13T04:14:02.462Z,99134.94
2023-02-13T04:16:31.559Z,99139.38
2023-02-13T04:18:59.787Z,99137.63
2023-02-13T04:21:28.263Z,99130.50
2023-02-13T04:23:56.310Z,99133.13
2023-02-13T04:26:25.971Z,99138.50
2023-02-13T04:28:54.526Z,99140.28
2023-02-13T04:31:22.852Z,99134.94
2023-02-13T04:33:51.121Z,99132.25
2023-02-13T04:36:19.253Z,99134.06
2023-02-13T04:38:47.435Z,99137.63
2023-02-13T04:41:15.506Z,99139.44
2023-02-13T04:43:45.054Z,99131.41
2023-02-13T04:46:13.284Z,99130.50
2023-02-13T04:48:41.540Z,99136.75
2023-02-13T04:51:09.714Z,99126.03
2023-02-13T04:53:37.850Z,99134.06
2023-02-13T04:56:06.436Z,99130.50
2023-02-13T04:58:34.551Z,99129.63
2023-02-13T05:01:04.159Z,99140.34
2023-02-13T05:03:32.432Z,99129.63
2023-02-13T05:06:00.685Z,99127.88
2023-02-13T05:08:28.843Z,99124.25
2023-02-13T05:10:57.212Z,99123.38
2023-02-13T05:13:25.677Z,99121.56
2023-02-13T05:15:53.821Z,99133.19
2023-02-13T05:18:23.441Z,99126.94
2023-02-13T05:21:14.472Z,99134.06
2023-02-13T05:23:41.612Z,99134.94
2023-02-13T05:26:09.853Z,99136.69
2023-02-13T05:28:55.513Z,99134.91
2023-02-13T05:31:23.864Z,99136.69
2023-02-13T05:33:53.590Z,99145.63
2023-02-13T05:36:21.644Z,99145.63
2023-02-13T05:38:49.747Z,99134.91
2023-02-13T05:41:17.916Z,99135.75
2023-02-13T05:43:46.101Z,99125.03
2023-02-13T05:46:14.426Z,99134.84
2023-02-13T05:48:42.857Z,99137.53
2023-02-13T05:51:12.429Z,99136.59
2023-02-13T05:53:40.584Z,99140.16
2023-02-13T05:56:09.483Z,99137.47
2023-02-13T05:58:37.645Z,99135.75
2023-02-13T06:01:06.169Z,99145.53
2023-02-13T06:03:34.626Z,99148.22
2023-02-13T06:06:02.880Z,99146.41
2023-02-13T06:08:32.403Z,99146.34
2023-02-13T06:11:00.866Z,99149.84
2023-02-13T06:13:29.230Z,99148.00
2023-02-13T06:15:57.557Z,99149.78
2023-02-13T06:18:25.829Z,99151.50
2023-02-13T06:20:54.052Z,99150.59
2023-02-13T06:23:22.245Z,99151.50
2023-02-13T06:25:51.801Z,99147.03
2023-02-13T06:28:20.124Z,99147.03
2023-02-13T06:30:49.109Z,99153.22
2023-02-13T06:33:17.389Z,99157.72
2023-02-13T06:35:45.574Z,99163.06
2023-02-13T06:38:13.717Z,99164.94
2023-02-13T06:40:43.216Z,99165.00
2023-02-13T06:43:12.896Z,99159.63
2023-02-13T06:45:40.992Z,99171.19
2023-02-13T06:48:09.096Z,99170.25
2023-02-13T06:50:37.292Z,99180.06
2023-02-13T06:53:05.385Z,99175.59
2023-02-13T06:55:33.511Z,99173.88
2023-02-13T06:58:01.632Z,99176.53
2023-02-13T07:00:31.315Z,99172.91
2023-02-13T07:03:03.316Z,99172.00
2023-02-13T07:05:31.588Z,99176.44
2023-02-13T07:07:59.750Z,99169.28
2023-02-13T07:10:27.916Z,99171.94
2023-02-13T07:13:05.378Z,99174.63
2023-02-13T07:15:35.685Z,99171.06
2023-02-13T07:18:03.861Z,99171.03
2023-02-13T07:20:31.983Z,99164.84
2023-02-13T07:23:01.006Z,99166.59
2023-02-13T07:25:29.292Z,99163.81
2023-02-13T07:27:57.668Z,99159.31
2023-02-13T07:30:25.909Z,99161.97
2023-02-13T07:32:55.504Z,99163.00
2023-02-13T07:35:24.980Z,99164.88
2023-02-13T07:37:54.399Z,99162.19
2023-02-13T07:40:22.566Z,99159.50
2023-02-13T07:42:50.743Z,99148.84
2023-02-13T07:45:19.069Z,99144.34
2023-02-13T07:47:47.218Z,99148.78
2023-02-13T07:50:17.290Z,99147.91
2023-02-13T07:52:45.551Z,99137.13
2023-02-13T07:55:13.774Z,99138.94
2023-02-13T07:57:41.900Z,99128.19
2023-02-13T08:00:11.195Z,99131.75
2023-02-13T08:02:41.983Z,99129.09
2023-02-13T08:05:10.392Z,99124.63
2023-02-13T08:07:39.979Z,99127.31
2023-02-13T08:10:41.049Z,99130.00
2023-02-13T08:13:09.300Z,99123.78
2023-02-13T08:15:37.496Z,99122.00
2023-02-13T08:18:05.945Z,99121.94
2023-02-13T08:20:34.234Z,99113.88
2023-02-13T08:23:06.774Z,99118.41
2023-02-13T08:25:35.047Z,99109.47
2023-02-13T08:28:03.330Z,99101.41
2023-02-13T08:30:31.459Z,99108.53
2023-02-13T08:32:59.629Z,99106.78
2023-02-13T08:35:29.901Z,99105.00
2023-02-13T08:37:58.161Z,99113.03
2023-02-13T08:40:27.735Z,99107.66
2023-02-13T08:43:01.230Z,99106.72
2023-02-13T08:45:29.550Z,99096.06
2023-02-13T08:47:58.582Z,99097.78
2023-02-13T08:50:26.837Z,99100.47
2023-02-13T08:52:55.044Z,99092.44
2023-02-13T08:55:23.596Z,99097.78
2023-02-13T08:57:53.306Z,99091.56
2023-02-13T09:00:22.466Z,99089.75
2023-02-13T09:02:50.745Z,99092.44
2023-02-13T09:05:19.012Z,99086.16
2023-02-13T09:07:47.143Z,99078.16
2023-02-13T09:10:15.225Z,99079.00
2023-02-13T09:12:43.396Z,99091.56
2023-02-13T09:15:13.402Z,99083.53
2023-02-13T09:17:41.606Z,99083.53
2023-02-13T09:20:10.617Z,99077.22
2023-02-13T09:22:38.807Z,99080.78
2023-02-13T09:25:07.591Z,99076.28
2023-02-13T09:27:35.989Z,99081.59
2023-02-13T09:30:04.119Z,99082.50
2023-02-13T09:32:34.303Z,99090.53
2023-02-13T09:35:02.428Z,99093.16
2023-02-13T09:37:30.607Z,99094.00
2023-02-13T09:39:58.841Z,99093.00
2023-02-13T09:42:28.613Z,99092.94
2023-02-13T09:44:58.467Z,99095.63
2023-02-13T09:47:30.169Z,99086.63
2023-02-13T09:50:01.487Z,99092.00
2023-02-13T09:52:30.212Z,99098.31
2023-02-13T09:54:58.336Z,99101.91
2023-02-13T09:57:28.773Z,99099.22
2023-02-13T09:59:59.871Z,99098.41
2023-02-13T10:02:42.637Z,99100.25
2023-02-13T10:05:23.259Z,99108.28
2023-02-13T10:07:56.156Z,99100.25
2023-02-13T10:10:26.748Z,99105.69
2023-02-13T10:12:58.583Z,99102.34
2023-02-13T10:15:30.176Z,99097.84
2023-02-13T10:18:00.174Z,99099.56
2023-02-13T10:20:32.459Z,99109.41
2023-02-13T10:23:02.332Z,99098.69
2023-02-13T10:25:32.862Z,99090.63
2023-02-13T10:28:02.189Z,99093.31
2023-02-13T10:30:31.926Z,99086.16
2023-02-13T10:33:15.388Z,99088.81
2023-02-13T10:35:45.041Z,99087.94
2023-02-13T10:38:15.613Z,99087.94
2023-02-13T10:40:49.360Z,99084.44
2023-02-13T10:43:19.102Z,99081.75
2023-02-13T10:45:56.095Z,99074.59
2023-02-13T10:48:33.069Z,99075.47
2023-02-13T10:51:05.593Z,99074.53
2023-02-13T10:53:41.972Z,99067.38
2023-02-13T10:56:21.647Z,99065.50
2023-02-13T10:58:56.619Z,99058.34
2023-02-13T11:01:31.386Z,99059.25
2023-02-13T11:04:08.168Z,99061.88
2023-02-13T11:06:39.242Z,99065.44
2023-02-13T11:09:08.647Z,99057.41
2023-02-13T11:11:38.168Z,99056.47
2023-02-13T11:14:11.701Z,99056.47
2023-02-13T11:16:58.435Z,99051.97
2023-02-13T11:19:31.288Z,99053.75
2023-02-13T11:22:03.429Z,99050.16
2023-02-13T11:24:32.114Z,99048.38
2023-02-13T11:27:02.444Z,99039.38
2023-02-13T11:29:31.111Z,99041.19
2023-02-13T11:32:16.980Z,99040.25
2023-02-13T11:34:45.472Z,99035.78
2023-02-13T11:37:20.270Z,99030.41
2023-02-13T11:39:51.216Z,99029.53
2023-02-13T11:42:22.746Z,99032.22
2023-02-13T11:44:53.364Z,99036.59
2023-02-13T11:47:32.121Z,99023.13
2023-02-13T11:50:00.325Z,99025.81
2023-02-13T11:52:31.042Z,99028.47
2023-02-13T11:55:00.201Z,99028.44
2023-02-13T11:57:31.342Z,99024.78
2023-02-13T11:59:59.976Z,99018.44
2023-02-13T12:02:28.624Z,99020.19
2023-02-13T12:05:15.158Z,99016.66
2023-02-13T12:07:44.896Z,99016.59
2023-02-13T12:10:19.614Z,99006.75
2023-02-13T12:12:53.452Z,99013.03
2023-02-13T12:15:22.711Z,99002.34
2023-02-13T12:17:55.151Z,99005.09
2023-02-13T12:20:23.408Z,98999.72
2023-02-13T12:23:01.048Z,99001.47
2023-02-13T12:25:59.242Z,98994.28
2023-02-13T12:28:31.929Z,98995.22
2023-02-13T12:31:18.371Z,98994.34
2023-02-13T12:34:25.162Z,98989.84
2023-02-13T12:36:59.588Z,98978.25
2023-02-13T12:39:32.632Z,98990.72
2023-02-13T12:42:09.039Z,98985.34
2023-02-13T12:44:51.765Z,98980.00
2023-02-13T12:47:21.541Z,98980.81
2023-02-13T12:50:22.430Z,98977.31
2023-02-13T12:52:56.748Z,98965.66
2023-02-13T12:55:35.059Z,98977.25
2023-02-13T12:58:10.494Z,98973.72
2023-02-13T13:00:43.548Z,98970.97
2023-02-13T13:03:27.245Z,98969.19
2023-02-13T13:06:13.247Z,98960.22
2023-02-13T13:08:49.018Z,98964.63
2023-02-13T13:11:27.281Z,98957.47
2023-02-13T13:14:00.872Z,98955.75
2023-02-13T13:16:33.167Z,98964.63
2023-02-13T13:19:07.045Z,98955.75
2023-02-13T13:21:40.069Z,98955.66
2023-02-13T13:24:12.668Z,98953.84
2023-02-13T13:26:42.851Z,98958.34
2023-02-13T13:29:13.418Z,98960.97
2023-02-13T13:31:41.723Z,98960.97
2023-02-13T13:34:14.753Z,98961.03
2023-02-13T13:36:45.422Z,98958.78
2023-02-13T13:39:21.797Z,98962.56
2023-02-13T13:41:54.596Z,98964.28
2023-02-13T13:44:48.956Z,98962.59
2023-02-13T13:47:22.298Z,98965.28
2023-02-13T13:49:52.752Z,98968.69
2023-02-13T13:52:24.070Z,98965.84
2023-02-13T13:54:53.796Z,98964.94
2023-02-13T13:57:24.082Z,98965.84
2023-02-13T14:00:04.973Z,98968.56
2023-02-13T14:02:40.582Z,98973.06
2023-02-13T14:05:29.786Z,98976.59
2023-02-13T14:07:59.027Z,98974.81
2023-02-13T14:11:00.348Z,98967.66
2023-02-13T14:13:34.243Z,98966.75
2023-02-13T14:16:02.669Z,98973.00
2023-02-13T14:18:30.836Z,98974.78
2023-02-13T14:21:00.741Z,98969.50
2023-02-13T14:23:38.243Z,98967.75
2023-02-13T14:26:14.597Z,98964.44
2023-02-13T14:28:44.753Z,98959.09
2023-02-13T14:31:22.463Z,98959.06
2023-02-13T14:33:56.703Z,98957.19
2023-02-13T14:36:27.381Z,98957.13
2023-02-13T14:38:57.332Z,98948.13
2023-02-13T14:41:46.174Z,98957.06
2023-02-13T14:44:30.617Z,98946.41
2023-02-13T14:46:58.941Z,98944.63
2023-02-13T14:49:28.376Z,98945.56
2023-02-13T14:51:57.516Z,98951.00
2023-02-13T14:54:28.750Z,98948.31
2023-02-13T14:57:07.165Z,98947.38
2023-02-13T14:59:47.794Z,98954.59
2023-02-13T15:02:22.502Z,98954.59
2023-02-13T15:04:51.233Z,98938.50
2023-02-13T15:07:23.385Z,98935.88
2023-02-13T15:09:53.242Z,98931.41
2023-02-13T15:12:29.336Z,98931.44
2023-02-13T15:14:58.985Z,98938.63
2023-02-13T15:17:29.428Z,98933.28
2023-02-13T15:19:59.584Z,98933.31
2023-02-13T15:22:32.150Z,98924.41
2023-02-13T15:25:00.875Z,98923.53
2023-02-13T15:27:29.936Z,98928.94
2023-02-13T15:30:01.430Z,98928.94
2023-02-13T15:32:34.354Z,98937.91
2023-02-13T15:35:02.718Z,98932.59
2023-02-13T15:37:31.713Z,98923.69
2023-02-13T15:40:16.108Z,98921.94
2023-02-13T15:42:44.441Z,98921.88
2023-02-13T15:45:17.430Z,98923.75
2023-02-13T15:47:45.833Z,98930.00
2023-02-13T15:50:25.497Z,98922.84
2023-02-13T15:52:54.045Z,98930.91
2023-02-13T15:55:23.359Z,98923.81
2023-02-13T15:57:53.235Z,98925.53
2023-02-13T16:00:25.680Z,98927.41
2023-02-13T16:02:54.569Z,98925.59
2023-02-13T16:05:38.558Z,98922.03
2023-02-13T16:08:29.867Z,98920.31
2023-02-13T16:11:18.790Z,98922.09
2023-02-13T16:13:58.577Z,98931.03
2023-02-13T16:16:28.393Z,98923.91
2023-02-13T16:18:56.730Z,98919.41
2023-02-13T16:21:25.158Z,98924.78
2023-02-13T16:23:53.770Z,98931.94
2023-02-13T16:26:21.935Z,98931.94
2023-02-13T16:28:50.313Z,98936.41
2023-02-13T16:31:19.121Z,98938.13
2023-02-13T16:33:48.757Z,98941.75
2023-02-13T16:36:26.005Z,98951.59
2023-02-13T16:38:54.198Z,98954.34
2023-02-13T16:41:32.081Z,98961.44
2023-02-13T16:44:00.368Z,98969.50
2023-02-13T16:46:33.436Z,98971.28
2023-02-13T16:49:28.194Z,98967.75
2023-02-13T16:51:58.657Z,98974.81
2023-02-13T16:54:35.360Z,98972.09
2023-02-13T16:57:05.146Z,98974.59
2023-02-13T16:59:41.364Z,98978.09
2023-02-13T17:02:23.120Z,98977.19
2023-02-13T17:04:54.092Z,98986.13
2023-02-13T17:07:24.362Z,98987.97
2023-02-13T17:10:00.316Z,98981.72
2023-02-13T17:12:29.566Z,98988.00
2023-02-13T17:14:58.584Z,98986.19
2023-02-13T17:17:28.082Z,98988.88
2023-02-13T17:19:57.767Z,98986.19
2023-02-13T17:22:33.358Z,98988.81
2023-02-13T17:25:02.072Z,98988.81
2023-02-13T17:27:30.226Z,98991.50
2023-02-13T17:29:58.492Z,98992.38
2023-02-13T17:32:27.245Z,98997.75
2023-02-13T17:34:55.548Z,98997.75
2023-02-13T17:37:26.308Z,99000.44
2023-02-13T17:39:54.661Z,99003.06
2023-02-13T17:42:25.011Z,99000.34
2023-02-13T17:44:53.232Z,99004.75
2023-02-13T17:47:21.514Z,99007.44
2023-02-13T17:49:50.134Z,99011.03
2023-02-13T17:52:19.896Z,99009.22
2023-02-13T17:54:50.076Z,99010.94
2023-02-13T17:57:19.034Z,99023.47
2023-02-13T17:59:47.467Z,99022.50
2023-02-13T18:02:16.918Z,99022.50
2023-02-13T18:04:45.345Z,99020.72
2023-02-13T18:07:13.808Z,99027.81
2023-02-13T18:09:42.078Z,99033.19
2023-02-13T18:12:14.488Z,99031.38
2023-02-13T18:14:42.801Z,99036.75
2023-02-13T18:17:11.460Z,99035.00
2023-02-13T18:19:39.845Z,99041.22
2023-02-13T18:22:09.128Z,99040.31
2023-02-13T18:24:38.113Z,99036.69
2023-02-13T18:27:07.507Z,99031.31
2023-02-13T18:29:37.666Z,99027.72
2023-02-13T18:32:09.909Z,99024.16
2023-02-13T18:34:38.633Z,99028.59
2023-02-13T18:37:06.923Z,99029.47
2023-02-13T18:39:35.939Z,99033.91
2023-02-13T18:42:04.056Z,99035.72
2023-02-13T18:44:32.345Z,99031.16
2023-02-13T18:47:02.124Z,99027.47
2023-02-13T18:49:30.389Z,99030.09
2023-02-13T18:51:58.630Z,99026.56
2023-02-13T18:54:26.803Z,99026.56
2023-02-13T18:56:54.986Z,99031.03
2023-02-13T18:59:23.659Z,99037.31
2023-02-13T19:01:51.850Z,99025.63
2023-02-13T19:04:21.507Z,99025.56
2023-02-13T19:06:49.784Z,99022.03
2023-02-13T19:09:17.977Z,99021.97
2023-02-13T19:11:47.969Z,99015.63
2023-02-13T19:14:16.351Z,99011.16
2023-02-13T19:16:44.843Z,99010.22
2023-02-13T19:19:13.078Z,99011.09
2023-02-13T19:21:42.694Z,99016.41
2023-02-13T19:24:12.085Z,99012.88
2023-02-13T19:26:40.281Z,99011.91
2023-02-13T19:29:08.431Z,99018.16
2023-02-13T19:31:36.725Z,99017.34
2023-02-13T19:34:05.857Z,99011.22
2023-02-13T19:36:34.380Z,99017.34
2023-02-13T19:39:04.990Z,99015.47
2023-02-13T19:41:33.633Z,98998.44
2023-02-13T19:44:01.850Z,99007.38
2023-02-13T19:46:31.007Z,99003.75
2023-02-13T19:48:59.299Z,99006.38
2023-02-13T19:51:28.240Z,99006.38
2023-02-13T19:53:56.935Z,98997.44
2023-02-13T19:56:27.415Z,99000.94
2023-02-13T19:58:55.747Z,98992.91
2023-02-13T20:01:24.752Z,98992.84
2023-02-13T20:03:53.069Z,98989.22
2023-02-13T20:06:22.312Z,99001.78
2023-02-13T20:08:50.842Z,99000.84
2023-02-13T20:11:19.741Z,98999.09
2023-02-13T20:13:49.328Z,98990.16
2023-02-13T20:16:18.763Z,98982.97
2023-02-13T20:18:46.992Z,98980.22
2023-02-13T20:21:15.935Z,98985.59
2023-02-13T20:23:44.412Z,98981.13
2023-02-13T20:26:14.824Z,98979.31
2023-02-13T20:28:43.146Z,98977.53
2023-02-13T20:31:13.398Z,98970.38
2023-02-13T20:33:41.748Z,98975.69
2023-02-13T20:36:11.489Z,98981.03
2023-02-13T20:38:39.624Z,98981.94
2023-02-13T20:41:11.217Z,98971.19
2023-02-13T20:43:39.452Z,98979.25
2023-02-13T20:46:07.640Z,98973.88
2023-02-13T20:48:37.841Z,98973.88
2023-02-13T20:51:07.310Z,98984.56
2023-02-13T20:53:35.760Z,98983.69
2023-02-13T20:56:05.200Z,98991.69
2023-02-13T20:58:33.514Z,98986.31
2023-02-13T21:01:02.498Z,99002.44
2023-02-13T21:03:30.864Z,99008.69
2023-02-13T21:06:00.502Z,98991.69
2023-02-13T21:08:28.766Z,98992.56
2023-02-13T21:11:02.097Z,98987.19
2023-02-13T21:13:30.276Z,98978.19
2023-02-13T21:16:05.090Z,98979.09
2023-02-13T21:18:33.420Z,98985.38
2023-02-13T21:21:03.010Z,98984.53
2023-02-13T21:23:31.210Z,98980.94
2023-02-13T21:26:02.991Z,98985.38
2023-02-13T21:28:31.232Z,98984.53
2023-02-13T21:30:59.742Z,98974.63
2023-02-13T21:33:28.179Z,98979.09
2023-02-13T21:36:02.767Z,98980.00
2023-02-13T21:38:30.869Z,98975.50
2023-02-13T21:41:05.653Z,98971.94
2023-02-13T21:43:37.880Z,98961.22
2023-02-13T21:46:10.424Z,98968.41
2023-02-13T21:48:38.669Z,98972.91
2023-02-13T21:51:08.902Z,98972.00
2023-02-13T21:53:37.200Z,98965.72
2023-02-13T21:56:05.761Z,98963.97
2023-02-13T21:58:34.228Z,98962.16
2023-02-13T22:01:02.822Z,98961.28
2023-02-13T22:03:31.099Z,98974.69
2023-02-13T22:05:59.241Z,98966.66
2023-02-13T22:08:29.097Z,98970.22
2023-02-13T22:10:58.222Z,98962.25
2023-02-13T22:13:26.682Z,98968.56
2023-02-13T22:16:00.855Z,98962.31
2023-02-13T22:18:29.126Z,98973.06
2023-02-13T22:20:57.748Z,98971.25
2023-02-13T22:23:26.193Z,98976.69
2023-02-13T22:25:55.816Z,98993.66
2023-02-13T22:28:24.076Z,98992.81
2023-02-13T22:30:52.489Z,98992.81
2023-02-13T22:33:20.723Z,98978.50
2023-02-13T22:35:48.944Z,98991.03
2023-02-13T22:38:17.264Z,98985.72
2023-02-13T22:40:45.460Z,98987.53
2023-02-13T22:43:15.092Z,98996.47
2023-02-13T22:45:43.258Z,98992.00
2023-02-13T22:48:11.357Z,98995.59
2023-02-13T22:50:39.571Z,98994.69
2023-02-13T22:53:07.864Z,98997.38
2023-02-13T22:55:36.125Z,99006.38
2023-02-13T22:58:04.302Z,98992.97
2023-02-13T23:00:34.012Z,98993.03
2023-02-13T23:03:02.288Z,99007.31
2023-02-13T23:05:30.484Z,99013.56
2023-02-13T23:07:58.695Z,99004.69
2023-02-13T23:10:26.840Z,98994.81
2023-02-13T23:12:54.021Z,99000.25
2023-02-13T23:15:22.391Z,99000.25
2023-02-13T23:18:09.779Z,98999.38
2023-02-13T23:20:38.024Z,98996.69
2023-02-13T23:23:06.213Z,98994.91
2023-02-13T23:25:34.391Z,98994.91
2023-02-13T23:28:02.560Z,99002.13
2023-02-13T23:30:30.689Z,98996.75
2023-02-13T23:33:00.689Z,98991.38
2023-02-13T23:35:28.897Z,98994.09
2023-02-13T23:37:56.978Z,98986.03
2023-02-13T23:40:25.217Z,98988.72
2023-02-13T23:42:53.498Z,98995.06
2023-02-13T23:45:21.805Z,98984.31
2023-02-13T23:47:49.996Z,98989.69
2023-02-13T23:50:20.029Z,98988.78
2023-02-13T23:52:48.316Z,98984.31
2023-02-13T23:55:16.470Z,98974.53
2023-02-13T23:57:46.217Z,98979.00
